Time;durP1;ratioP1;P1;durP2;ratioP2;P2;SDS_P1;SDS_P2;PMS_P1;PMS_P2;Temp;Humidity;BMP_temperature;BMP_pressure;BME280_temperature;BME280_humidity;BME280_pressure;Samples;Min_cycle;Max_cycle;Signal;HPM_P1;HPM_P2
2021/07/23 00:01:16;;;;;;;24.23;23.23;;;13.10;99.90;;;;;;5072847;28;20020;-61
2021/07/23 00:03:44;;;;;;;24.33;23.23;;;13.20;99.90;;;;;;5072436;28;20021;-62
2021/07/23 00:06:11;;;;;;;24.67;23.67;;;13.50;99.90;;;;;;5072640;28;20024;-64
2021/07/23 00:08:38;;;;;;;22.80;21.80;;;13.60;99.90;;;;;;5072842;28;20017;-65
2021/07/23 00:11:06;;;;;;;21.05;20.15;;;13.70;99.90;;;;;;5072772;28;20021;-60
2021/07/23 00:13:33;;;;;;;19.77;18.90;;;13.90;99.90;;;;;;5072710;28;20021;-61
2021/07/23 00:16:00;;;;;;;17.40;16.70;;;14.00;99.90;;;;;;5072692;28;20488;-61
2021/07/23 00:18:28;;;;;;;15.68;15.07;;;13.90;99.90;;;;;;5072611;28;20384;-62
2021/07/23 00:20:55;;;;;;;16.08;15.48;;;13.60;99.90;;;;;;5072660;28;20025;-64
2021/07/23 00:23:22;;;;;;;16.30;15.40;;;13.60;99.90;;;;;;5072519;28;20024;-61
2021/07/23 00:25:50;;;;;;;16.20;15.50;;;13.60;99.90;;;;;;5072553;28;20025;-61
2021/07/23 00:28:17;;;;;;;15.10;14.50;;;13.70;99.90;;;;;;5072607;28;20025;-61
2021/07/23 00:30:44;;;;;;;14.85;14.25;;;13.60;99.90;;;;;;5072462;28;20025;-60
2021/07/23 00:33:12;;;;;;;14.70;14.10;;;13.60;99.90;;;;;;5072399;28;20519;-61
2021/07/23 00:35:39;;;;;;;13.82;13.32;;;13.60;99.90;;;;;;5072394;28;20016;-62
2021/07/23 00:38:06;;;;;;;13.30;12.80;;;13.70;99.90;;;;;;5072658;28;20021;-59
2021/07/23 00:40:34;;;;;;;13.63;13.10;;;13.70;99.90;;;;;;5076515;28;20021;-60
2021/07/23 00:43:01;;;;;;;13.25;12.75;;;13.90;99.90;;;;;;5076351;28;20472;-57
2021/07/23 00:45:29;;;;;;;11.90;11.50;;;14.10;99.90;;;;;;5076316;28;20020;-59
2021/07/23 00:48:03;;;;;;;11.75;11.35;;;14.40;99.90;;;;;;5076384;28;20566;-59
2021/07/23 00:50:32;;;;;;;11.15;10.65;;;14.80;99.90;;;;;;5076341;28;20032;-61
2021/07/23 00:53:00;;;;;;;10.88;10.40;;;15.10;99.90;;;;;;5076278;28;20034;-59
2021/07/23 00:55:27;;;;;;;10.25;9.75;;;15.10;99.90;;;;;;5075890;28;20532;-60
2021/07/23 00:57:56;;;;;;;8.10;7.70;;;15.10;99.90;;;;;;5076331;28;20067;-59
2021/07/23 01:00:25;;;;;;;7.45;7.15;;;14.80;99.90;;;;;;5076344;28;20029;-59
2021/07/23 01:02:53;;;;;;;7.45;7.05;;;14.80;99.90;;;;;;5076029;28;20027;-59
2021/07/23 01:05:21;;;;;;;6.70;6.30;;;15.00;99.90;;;;;;5076143;28;20020;-59
2021/07/23 01:07:48;;;;;;;6.13;5.82;;;14.70;99.90;;;;;;5074747;28;20427;-58
2021/07/23 01:10:16;;;;;;;5.68;5.38;;;14.60;99.90;;;;;;5075896;28;20032;-58
2021/07/23 01:12:43;;;;;;;5.40;5.10;;;14.70;99.90;;;;;;5076093;28;20016;-63
2021/07/23 01:15:11;;;;;;;4.90;4.70;;;14.80;99.90;;;;;;5075963;28;20012;-58
2021/07/23 01:17:40;;;;;;;5.00;4.80;;;14.80;99.90;;;;;;5075695;28;20024;-57
2021/07/23 01:20:29;;;;;;;5.03;4.68;;;14.70;99.90;;;;;;5075765;28;20013;-57
2021/07/23 01:22:59;;;;;;;4.20;4.00;;;14.80;99.90;;;;;;5075701;28;20389;-56
2021/07/23 01:25:28;;;;;;;4.75;4.50;;;14.70;99.90;;;;;;5075544;28;20036;-57
2021/07/23 01:27:57;;;;;;;5.10;4.70;;;14.70;99.90;;;;;;5075763;28;20020;-59
2021/07/23 01:30:25;;;;;;;4.38;4.10;;;14.80;99.90;;;;;;5075507;28;20516;-58
2021/07/23 01:32:54;;;;;;;4.40;4.20;;;15.00;99.90;;;;;;5075687;28;20016;-57
2021/07/23 01:35:24;;;;;;;4.10;3.90;;;15.20;99.90;;;;;;5075487;28;20028;-57
2021/07/23 01:37:54;;;;;;;3.80;3.70;;;15.60;99.90;;;;;;5074057;28;20078;-57
2021/07/23 01:40:21;;;;;;;4.20;3.90;;;15.50;99.90;;;;;;5075437;28;20085;-57
2021/07/23 01:42:49;;;;;;;4.00;3.80;;;15.90;99.90;;;;;;5075589;28;20041;-60
2021/07/23 01:45:17;;;;;;;3.40;3.17;;;16.20;99.90;;;;;;5075370;28;20389;-60
2021/07/23 01:47:44;;;;;;;3.60;3.40;;;16.10;99.40;;;;;;5075338;28;20047;-59
2021/07/23 01:50:12;;;;;;;3.80;3.60;;;16.20;99.90;;;;;;5074257;28;20021;-59
2021/07/23 01:52:39;;;;;;;3.70;3.50;;;16.50;99.90;;;;;;5074048;28;20124;-60
2021/07/23 01:55:07;;;;;;;3.80;3.45;;;16.30;99.70;;;;;;5075169;28;20055;-58
2021/07/23 01:57:35;;;;;;;3.80;3.60;;;16.20;99.30;;;;;;5074879;28;20143;-58
2021/07/23 02:00:04;;;;;;;3.65;3.45;;;16.40;99.00;;;;;;5075010;28;20067;-58
2021/07/23 02:02:34;;;;;;;3.90;3.60;;;16.10;99.60;;;;;;5075116;28;20032;-59
2021/07/23 02:05:03;;;;;;;3.95;3.60;;;16.20;99.20;;;;;;5074785;28;20485;-58
2021/07/23 02:07:30;;;;;;;3.42;3.22;;;16.10;99.70;;;;;;5074775;28;20031;-59
2021/07/23 02:09:58;;;;;;;3.65;3.45;;;16.20;99.40;;;;;;5074847;28;20033;-58
2021/07/23 02:12:25;;;;;;;3.50;3.30;;;16.60;98.70;;;;;;5074977;28;20549;-59
2021/07/23 02:14:52;;;;;;;2.85;2.70;;;16.90;97.90;;;;;;5074837;28;20024;-57
2021/07/23 02:17:20;;;;;;;2.85;2.75;;;16.40;97.80;;;;;;5074853;28;20028;-58
2021/07/23 02:19:47;;;;;;;3.00;2.90;;;16.60;99.10;;;;;;5074765;28;20036;-58
2021/07/23 02:22:14;;;;;;;3.03;2.83;;;17.00;97.60;;;;;;5074727;28;20031;-58
2021/07/23 02:24:42;;;;;;;3.10;2.95;;;17.10;97.80;;;;;;5074495;28;20111;-57
2021/07/23 02:27:11;;;;;;;2.90;2.80;;;17.00;97.30;;;;;;5074584;28;20075;-59
2021/07/23 02:29:39;;;;;;;3.15;2.58;;;17.10;97.90;;;;;;5074639;28;20492;-57
2021/07/23 02:32:07;;;;;;;3.20;3.10;;;17.10;96.80;;;;;;5074537;28;20024;-58
2021/07/23 02:34:35;;;;;;;3.35;3.05;;;17.60;98.80;;;;;;5074456;28;20036;-60
2021/07/23 02:37:03;;;;;;;2.72;2.63;;;17.60;97.20;;;;;;5074421;28;20066;-58
2021/07/23 02:39:30;;;;;;;2.70;2.60;;;17.60;96.20;;;;;;5074274;28;20481;-57
2021/07/23 02:41:57;;;;;;;2.80;2.70;;;17.70;96.20;;;;;;5074271;28;20040;-58
2021/07/23 02:44:25;;;;;;;2.78;2.60;;;17.80;97.10;;;;;;5074190;28;20532;-58
2021/07/23 02:46:52;;;;;;;2.70;2.60;;;17.90;96.50;;;;;;5074187;28;20031;-58
2021/07/23 02:49:19;;;;;;;3.00;2.80;;;17.90;95.60;;;;;;5074187;28;20027;-59
2021/07/23 02:51:46;;;;;;;3.20;2.90;;;17.60;95.40;;;;;;5074156;28;20013;-58
2021/07/23 02:54:14;;;;;;;3.22;3.00;;;17.50;96.50;;;;;;5074081;28;20074;-58
2021/07/23 02:56:41;;;;;;;3.30;3.10;;;17.60;97.20;;;;;;5073771;28;20389;-60
2021/07/23 02:59:08;;;;;;;3.08;2.92;;;17.40;96.80;;;;;;5074027;28;20035;-58
2021/07/23 03:01:37;;;;;;;3.35;3.25;;;17.30;96.10;;;;;;5073764;28;20047;-58
2021/07/23 03:04:05;;;;;;;2.92;2.80;;;17.40;96.50;;;;;;5073835;28;20023;-58
2021/07/23 03:06:34;;;;;;;;;;;17.40;96.30;;;;;;5074224;28;20052;-59
2021/07/23 03:09:02;;;;;;;2.95;2.78;;;17.40;96.90;;;;;;5073748;28;19962;-59
2021/07/23 03:11:29;;;;;;;2.92;2.75;;;17.60;96.20;;;;;;5073850;28;20029;-59
2021/07/23 03:13:58;;;;;;;2.90;2.70;;;17.70;96.50;;;;;;5074271;28;20024;-59
2021/07/23 03:16:26;;;;;;;2.70;2.60;;;17.60;96.60;;;;;;5073612;28;20025;-57
2021/07/23 03:18:53;;;;;;;2.83;2.63;;;17.30;96.30;;;;;;5073589;28;20036;-58
2021/07/23 03:21:21;;;;;;;2.60;2.50;;;17.20;97.50;;;;;;5073593;28;20028;-58
2021/07/23 03:23:50;;;;;;;2.80;2.60;;;17.30;97.00;;;;;;5073449;28;20111;-60
2021/07/23 03:26:19;;;;;;;2.83;2.70;;;17.20;97.90;;;;;;5073746;28;20024;-60
2021/07/23 03:28:46;;;;;;;2.97;2.78;;;17.20;97.30;;;;;;5073386;28;20433;-60
2021/07/23 03:31:14;;;;;;;3.35;3.13;;;17.10;97.30;;;;;;5073298;28;20051;-60
2021/07/23 03:33:42;;;;;;;2.90;2.70;;;17.10;97.40;;;;;;5073188;28;20043;-59
2021/07/23 03:36:09;;;;;;;3.60;3.00;;;17.20;97.80;;;;;;5073139;28;20074;-60
2021/07/23 03:38:37;;;;;;;3.08;2.88;;;17.10;97.00;;;;;;5073144;28;20090;-60
2021/07/23 03:41:05;;;;;;;2.70;2.60;;;17.00;97.40;;;;;;5073213;28;20033;-60
2021/07/23 03:43:32;;;;;;;5.88;2.95;;;16.80;98.20;;;;;;5073060;28;20489;-59
2021/07/23 03:45:59;;;;;;;3.33;3.10;;;16.70;99.00;;;;;;5073032;28;20024;-60
2021/07/23 03:48:27;;;;;;;3.45;3.25;;;16.70;98.90;;;;;;5073344;28;20044;-58
2021/07/23 03:50:54;;;;;;;4.00;3.67;;;16.50;99.50;;;;;;5073040;28;20017;-58
2021/07/23 03:53:21;;;;;;;3.70;3.50;;;16.40;99.40;;;;;;5073147;28;20052;-60
2021/07/23 03:55:49;;;;;;;3.60;3.40;;;16.30;99.90;;;;;;5072770;28;20055;-61
2021/07/23 03:58:17;;;;;;;3.50;3.30;;;16.20;99.90;;;;;;5073188;28;20029;-60
2021/07/23 04:00:44;;;;;;;4.13;3.80;;;16.10;99.90;;;;;;5073010;28;20113;-58
2021/07/23 04:03:11;;;;;;;4.65;3.90;;;16.10;99.90;;;;;;5073142;28;20052;-61
2021/07/23 04:05:39;;;;;;;3.70;3.40;;;16.00;99.90;;;;;;5072976;28;20385;-59
2021/07/23 04:08:06;;;;;;;3.35;3.15;;;15.90;99.90;;;;;;5073011;28;20023;-60
2021/07/23 04:10:33;;;;;;;3.80;3.50;;;15.90;99.90;;;;;;5073060;28;20017;-59
2021/07/23 04:13:01;;;;;;;5.80;3.95;;;15.90;99.90;;;;;;5072300;28;20028;-60
2021/07/23 04:15:28;;;;;;;4.22;3.80;;;15.90;99.90;;;;;;5072890;28;20481;-60
2021/07/23 04:17:55;;;;;;;4.18;3.40;;;15.80;99.90;;;;;;5072922;28;20509;-60
2021/07/23 04:20:23;;;;;;;4.65;3.80;;;15.70;99.90;;;;;;5073049;28;20096;-60
2021/07/23 04:22:50;;;;;;;4.57;4.25;;;15.60;99.90;;;;;;5073055;28;20082;-60
2021/07/23 04:25:18;;;;;;;3.60;3.40;;;15.50;99.90;;;;;;5072795;28;20016;-60
2021/07/23 04:27:45;;;;;;;3.92;3.63;;;15.50;99.90;;;;;;5072846;28;20024;-60
2021/07/23 04:30:13;;;;;;;3.75;3.50;;;15.40;99.90;;;;;;5072696;28;20469;-58
2021/07/23 04:32:41;;;;;;;5.82;3.90;;;15.40;99.90;;;;;;5072712;28;20021;-59
2021/07/23 04:35:08;;;;;;;3.97;3.40;;;15.40;99.90;;;;;;5072589;28;20028;-59
2021/07/23 04:37:36;;;;;;;4.35;3.80;;;15.20;99.90;;;;;;5072787;28;20029;-59
2021/07/23 04:40:06;;;;;;;3.50;3.30;;;15.20;99.90;;;;;;5072586;28;20099;-61
2021/07/23 04:42:34;;;;;;;4.85;4.35;;;15.20;99.90;;;;;;5072491;28;20035;-62
2021/07/23 04:45:05;;;;;;;4.30;4.00;;;15.20;99.90;;;;;;5072441;28;20120;-60
2021/07/23 04:47:32;;;;;;;4.85;4.47;;;15.20;99.90;;;;;;5072666;28;20048;-61
2021/07/23 04:50:01;;;;;;;5.68;5.32;;;15.10;99.90;;;;;;5072554;28;20099;-61
2021/07/23 04:52:29;;;;;;;6.40;5.90;;;15.10;99.90;;;;;;5072676;28;20021;-61
2021/07/23 04:54:56;;;;;;;6.50;6.00;;;15.10;99.90;;;;;;5072469;28;20029;-60
2021/07/23 04:57:29;;;;;;;6.53;6.05;;;14.90;99.90;;;;;;5072324;28;20048;-60
2021/07/23 04:59:56;;;;;;;7.30;6.70;;;14.90;99.90;;;;;;5072373;28;20110;-61
2021/07/23 05:02:23;;;;;;;7.50;7.10;;;14.80;99.90;;;;;;5072374;28;20501;-61
2021/07/23 05:04:51;;;;;;;7.38;6.97;;;14.70;99.90;;;;;;5072277;28;20235;-61
2021/07/23 05:07:18;;;;;;;8.43;7.90;;;14.60;99.90;;;;;;5072931;28;20024;-61
2021/07/23 05:09:46;;;;;;;8.85;8.25;;;14.60;99.90;;;;;;5072266;28;20111;-60
2021/07/23 05:12:14;;;;;;;8.80;8.30;;;14.40;99.90;;;;;;5072184;28;20493;-58
2021/07/23 05:14:42;;;;;;;9.23;8.70;;;14.30;99.90;;;;;;5072114;28;20181;-58
2021/07/23 05:17:10;;;;;;;9.07;8.57;;;14.30;99.90;;;;;;5072135;28;20058;-59
2021/07/23 05:19:38;;;;;;;10.43;9.93;;;14.20;99.90;;;;;;5072125;28;20109;-59
2021/07/23 05:22:06;;;;;;;11.57;10.90;;;14.20;99.90;;;;;;5072059;28;20028;-59
2021/07/23 05:24:34;;;;;;;11.60;11.02;;;14.20;99.90;;;;;;5074048;28;20029;-59
2021/07/23 05:27:02;;;;;;;11.50;10.80;;;14.30;99.90;;;;;;5075838;28;20026;-60
2021/07/23 05:29:29;;;;;;;12.00;11.20;;;14.30;99.90;;;;;;5075859;28;20392;-59
2021/07/23 05:31:56;;;;;;;11.13;10.60;;;14.20;99.90;;;;;;5075802;28;20020;-59
2021/07/23 05:34:23;;;;;;;11.40;10.70;;;14.20;99.90;;;;;;5075585;28;20035;-60
2021/07/23 05:36:51;;;;;;;10.82;10.23;;;14.20;99.90;;;;;;5075528;28;20032;-59
2021/07/23 05:39:18;;;;;;;10.40;9.77;;;14.20;99.90;;;;;;5075503;28;20100;-57
2021/07/23 05:41:45;;;;;;;10.77;10.20;;;14.20;99.90;;;;;;5075428;28;20024;-59
2021/07/23 05:44:13;;;;;;;11.05;10.38;;;14.20;99.90;;;;;;5076048;28;20108;-58
2021/07/23 05:46:40;;;;;;;11.38;10.88;;;14.20;99.90;;;;;;5074233;28;20449;-56
2021/07/23 05:49:07;;;;;;;11.77;11.18;;;14.20;99.90;;;;;;5075607;28;20473;-57
2021/07/23 05:51:35;;;;;;;12.77;12.07;;;14.20;99.90;;;;;;5075369;28;20476;-58
2021/07/23 05:54:02;;;;;;;12.30;11.65;;;14.20;99.90;;;;;;5075345;28;20021;-60
2021/07/23 05:56:29;;;;;;;12.48;11.85;;;14.20;99.90;;;;;;5075124;28;20353;-59
2021/07/23 05:58:57;;;;;;;12.75;12.15;;;14.20;99.90;;;;;;5075183;28;20500;-60
2021/07/23 06:01:24;;;;;;;12.80;12.20;;;14.20;99.90;;;;;;5075103;28;20032;-61
2021/07/23 06:03:53;;;;;;;13.32;12.63;;;14.20;99.90;;;;;;5075059;28;20424;-58
2021/07/23 06:06:20;;;;;;;13.07;12.38;;;14.10;99.90;;;;;;5075062;28;20563;-59
2021/07/23 06:08:47;;;;;;;13.90;13.18;;;14.10;99.90;;;;;;5075104;28;20376;-59
2021/07/23 06:11:15;;;;;;;14.25;13.45;;;14.10;99.90;;;;;;5075040;28;20025;-59
2021/07/23 06:13:42;;;;;;;13.98;13.18;;;14.20;99.90;;;;;;5074966;28;20021;-59
2021/07/23 06:16:11;;;;;;;14.30;13.60;;;14.10;99.90;;;;;;5074849;28;20035;-59
2021/07/23 06:18:39;;;;;;;14.82;14.07;;;14.10;99.90;;;;;;5074766;28;20082;-58
2021/07/23 06:21:10;;;;;;;14.95;14.25;;;14.00;99.90;;;;;;5074737;28;20384;-59
2021/07/23 06:23:38;;;;;;;14.63;13.98;;;14.00;99.90;;;;;;5074633;28;20492;-60
2021/07/23 06:26:06;;;;;;;15.68;14.77;;;14.00;99.90;;;;;;5074532;28;20034;-60
2021/07/23 06:28:34;;;;;;;16.00;15.02;;;13.90;99.90;;;;;;5074655;28;20414;-57
2021/07/23 06:31:05;;;;;;;15.70;15.00;;;13.80;99.90;;;;;;5074355;28;20112;-58
2021/07/23 06:33:33;;;;;;;16.17;15.30;;;13.80;99.90;;;;;;5074811;28;20068;-59
2021/07/23 06:36:03;;;;;;;16.40;15.60;;;13.70;99.90;;;;;;5073766;28;20032;-59
2021/07/23 06:38:31;;;;;;;17.20;15.77;;;13.70;99.90;;;;;;5074590;28;20513;-58
2021/07/23 06:40:58;;;;;;;16.75;15.60;;;13.80;99.90;;;;;;5072978;28;20032;-58
2021/07/23 06:43:27;;;;;;;17.27;16.38;;;13.80;99.90;;;;;;5074058;28;20032;-58
2021/07/23 06:45:55;;;;;;;17.83;16.63;;;13.80;99.90;;;;;;5074219;28;20508;-59
2021/07/23 06:48:22;;;;;;;17.67;16.65;;;13.70;99.90;;;;;;5074017;28;20096;-60
2021/07/23 06:50:50;;;;;;;17.13;16.23;;;13.70;99.90;;;;;;5074158;28;20021;-59
2021/07/23 06:53:18;;;;;;;17.58;16.58;;;13.70;99.90;;;;;;5073962;28;20104;-59
2021/07/23 06:55:45;;;;;;;18.35;17.02;;;13.70;99.90;;;;;;5073747;28;20119;-59
2021/07/23 06:58:13;;;;;;;18.77;17.77;;;13.70;99.90;;;;;;5073875;28;20452;-59
2021/07/23 07:00:40;;;;;;;19.80;18.58;;;13.70;99.90;;;;;;5073855;28;20111;-60
2021/07/23 07:03:11;;;;;;;20.52;19.10;;;13.70;99.90;;;;;;5073734;28;20032;-60
2021/07/23 07:05:38;;;;;;;19.00;18.10;;;13.70;99.90;;;;;;5073834;28;20039;-59
2021/07/23 07:08:06;;;;;;;18.70;17.80;;;13.70;99.90;;;;;;5073767;28;20044;-59
2021/07/23 07:10:33;;;;;;;18.77;17.70;;;13.60;99.90;;;;;;5073688;28;20523;-58
2021/07/23 07:13:02;;;;;;;18.00;16.98;;;13.50;99.90;;;;;;5073736;28;20019;-59
2021/07/23 07:15:29;;;;;;;17.80;16.90;;;13.50;99.90;;;;;;5073573;28;20021;-57
2021/07/23 07:18:01;;;;;;;18.55;17.40;;;13.50;99.90;;;;;;5072276;28;20451;-58
2021/07/23 07:20:31;;;;;;;17.65;16.75;;;13.40;99.90;;;;;;5073556;28;20107;-59
2021/07/23 07:22:59;;;;;;;16.90;16.00;;;13.40;99.90;;;;;;5073494;28;20024;-59
2021/07/23 07:25:27;;;;;;;17.40;16.48;;;13.40;99.90;;;;;;5073424;28;20017;-60
2021/07/23 07:27:54;;;;;;;17.95;16.80;;;13.40;99.90;;;;;;5073571;28;20121;-59
2021/07/23 07:30:22;;;;;;;17.65;16.58;;;13.40;99.90;;;;;;5073461;28;20055;-60
2021/07/23 07:32:50;;;;;;;17.80;16.90;;;13.40;99.90;;;;;;5072147;28;20492;-59
2021/07/23 07:35:18;;;;;;;16.45;15.65;;;13.40;99.90;;;;;;5073254;28;20024;-61
2021/07/23 07:37:45;;;;;;;16.85;15.85;;;13.40;99.90;;;;;;5073142;28;20059;-60
2021/07/23 07:40:13;;;;;;;17.42;16.30;;;13.40;99.90;;;;;;5073163;28;20016;-59
2021/07/23 07:42:41;;;;;;;16.90;16.10;;;13.40;99.90;;;;;;5073148;28;20131;-59
2021/07/23 07:45:09;;;;;;;17.33;16.30;;;13.30;99.90;;;;;;5073170;28;20108;-59
2021/07/23 07:47:36;;;;;;;17.33;16.23;;;13.30;99.90;;;;;;5072364;28;20016;-57
2021/07/23 07:50:04;;;;;;;17.05;16.23;;;13.30;99.90;;;;;;5073047;28;20021;-57
2021/07/23 07:52:32;;;;;;;17.45;16.45;;;13.20;99.90;;;;;;5073279;28;20024;-58
2021/07/23 07:54:59;;;;;;;16.60;15.77;;;13.20;99.90;;;;;;5072970;28;20047;-59
2021/07/23 07:57:26;;;;;;;16.95;15.70;;;13.20;99.90;;;;;;5072894;28;20051;-58
2021/07/23 07:59:54;;;;;;;16.70;15.80;;;13.20;99.90;;;;;;5072935;28;20027;-58
2021/07/23 08:02:22;;;;;;;16.25;15.20;;;13.20;99.90;;;;;;5072882;28;20393;-59
2021/07/23 08:04:49;;;;;;;15.77;15.02;;;13.20;99.90;;;;;;5072696;28;20028;-59
2021/07/23 08:07:29;;;;;;;16.10;15.10;;;13.20;99.90;;;;;;5072980;28;20024;-58
2021/07/23 08:10:02;;;;;;;16.60;15.60;;;13.20;99.90;;;;;;5072836;28;20025;-59
2021/07/23 08:12:32;;;;;;;16.00;15.10;;;13.20;99.90;;;;;;5072959;28;20031;-59
2021/07/23 08:15:00;;;;;;;16.98;15.95;;;13.20;99.90;;;;;;5072730;28;20081;-59
2021/07/23 08:17:28;;;;;;;16.05;15.25;;;13.20;99.90;;;;;;5072873;28;20063;-56
2021/07/23 08:20:02;;;;;;;15.95;14.98;;;13.20;99.90;;;;;;5072784;28;20035;-58
2021/07/23 08:22:30;;;;;;;16.35;15.10;;;13.20;99.90;;;;;;5071433;28;20418;-62
2021/07/23 08:24:57;;;;;;;15.52;14.73;;;13.20;99.90;;;;;;5072670;28;20053;-58
2021/07/23 08:27:25;;;;;;;14.90;14.02;;;13.20;99.90;;;;;;5071361;28;20330;-59
2021/07/23 08:29:52;;;;;;;14.60;13.60;;;13.20;99.90;;;;;;5072910;28;20380;-58
2021/07/23 08:32:20;;;;;;;14.05;13.25;;;13.20;99.90;;;;;;5072626;28;20047;-58
2021/07/23 08:34:47;;;;;;;14.60;13.70;;;13.20;99.90;;;;;;5072896;28;20134;-57
2021/07/23 08:37:15;;;;;;;16.17;14.95;;;13.30;99.90;;;;;;5072503;28;20036;-54
2021/07/23 08:39:42;;;;;;;15.80;14.90;;;13.30;99.90;;;;;;5072624;28;20036;-56
2021/07/23 08:42:28;;;;;;;16.13;15.23;;;13.30;99.90;;;;;;5072563;28;20508;-58
2021/07/23 08:44:57;;;;;;;16.40;15.32;;;13.30;99.90;;;;;;5072661;28;20548;-57
2021/07/23 08:47:25;;;;;;;15.85;14.77;;;13.30;99.90;;;;;;5072565;28;20032;-57
2021/07/23 08:49:53;;;;;;;17.05;15.93;;;13.30;99.90;;;;;;5072553;28;20067;-55
2021/07/23 08:52:44;;;;;;;16.00;14.88;;;13.30;99.90;;;;;;5072374;28;20539;-54
2021/07/23 08:55:14;;;;;;;14.88;14.05;;;13.30;99.90;;;;;;5072676;28;20024;-57
2021/07/23 08:57:42;;;;;;;15.27;14.23;;;13.20;99.90;;;;;;5072301;28;20044;-56
2021/07/23 09:00:18;;;;;;;14.93;14.13;;;13.20;99.90;;;;;;5075657;28;20067;-56
2021/07/23 09:03:01;;;;;;;15.82;14.73;;;13.20;99.90;;;;;;5076346;28;20465;-55
2021/07/23 09:05:42;;;;;;;15.05;14.10;;;13.20;99.90;;;;;;5076223;28;20373;-56
2021/07/23 09:08:16;;;;;;;14.77;13.88;;;13.20;99.90;;;;;;5076161;28;20019;-56
2021/07/23 09:10:45;;;;;;;13.70;13.00;;;13.20;99.90;;;;;;5076225;28;20028;-52
2021/07/23 09:13:22;;;;;;;13.98;13.00;;;13.20;99.90;;;;;;5075957;28;20091;-55
2021/07/23 09:15:50;;;;;;;13.38;12.60;;;13.20;99.90;;;;;;5075898;28;20030;-55
2021/07/23 09:18:28;;;;;;;13.65;12.88;;;13.20;99.90;;;;;;5076804;28;20025;-56
2021/07/23 09:20:57;;;;;;;13.48;12.50;;;13.20;99.90;;;;;;5075866;28;20103;-54
2021/07/23 09:23:30;;;;;;;13.70;12.90;;;13.20;99.90;;;;;;5075845;28;20032;-56
2021/07/23 09:26:14;;;;;;;14.23;13.30;;;13.20;99.90;;;;;;5075714;28;20082;-57
2021/07/23 09:28:46;;;;;;;14.02;13.10;;;13.10;99.90;;;;;;5075683;28;20127;-57
2021/07/23 09:31:33;;;;;;;14.23;13.43;;;13.00;99.90;;;;;;5075577;28;20020;-56
2021/07/23 09:34:03;;;;;;;14.45;13.75;;;13.00;99.90;;;;;;5075690;28;20388;-53
2021/07/23 09:36:31;;;;;;;15.05;14.00;;;12.90;99.90;;;;;;5075377;28;20060;-55
2021/07/23 09:39:06;;;;;;;14.98;14.10;;;12.80;99.90;;;;;;5075622;28;20394;-56
2021/07/23 09:41:34;;;;;;;15.40;14.60;;;12.80;99.90;;;;;;5075726;28;20054;-55
2021/07/23 09:44:12;;;;;;;16.10;15.38;;;12.70;99.90;;;;;;5075285;28;20020;-57
2021/07/23 09:46:44;;;;;;;15.57;14.60;;;12.60;99.90;;;;;;5074268;28;20082;-54
2021/07/23 09:49:21;;;;;;;15.75;14.88;;;12.50;99.90;;;;;;5075371;28;20388;-57
2021/07/23 09:51:50;;;;;;;15.00;13.98;;;12.40;99.90;;;;;;5075361;28;20082;-57
2021/07/23 09:54:18;;;;;;;15.68;14.52;;;12.40;99.90;;;;;;5075176;28;20043;-57
2021/07/23 09:56:50;;;;;;;15.93;15.13;;;12.40;99.90;;;;;;5075383;28;20059;-57
2021/07/23 09:59:41;;;;;;;16.40;15.40;;;12.30;99.90;;;;;;5075386;28;20169;-56
2021/07/23 10:02:17;;;;;;;15.82;15.00;;;12.30;99.90;;;;;;5073943;28;20024;-57
2021/07/23 10:05:13;;;;;;;15.38;14.57;;;12.20;99.90;;;;;;5074858;28;20033;-54
2021/07/23 10:07:43;;;;;;;16.02;15.10;;;12.10;99.90;;;;;;5074116;28;20504;-56
2021/07/23 10:10:15;;;;;;;16.52;15.35;;;12.00;99.90;;;;;;5074081;28;20477;-55
2021/07/23 10:12:48;;;;;;;16.23;15.23;;;11.90;99.90;;;;;;5074944;28;20023;-55
2021/07/23 10:15:18;;;;;;;15.73;14.82;;;11.90;99.90;;;;;;5075055;28;20035;-54
2021/07/23 10:17:47;;;;;;;16.17;15.27;;;11.80;99.90;;;;;;5074915;28;20020;-57
2021/07/23 10:20:18;;;;;;;15.65;14.93;;;11.80;99.90;;;;;;5074791;28;20031;-55
2021/07/23 10:22:49;;;;;;;17.00;15.73;;;11.80;99.90;;;;;;5073562;28;20032;-56
2021/07/23 10:25:16;;;;;;;16.05;15.23;;;11.80;99.90;;;;;;5074685;28;20039;-57
2021/07/23 10:27:46;;;;;;;15.50;14.70;;;11.80;99.90;;;;;;5074618;28;20493;-55
2021/07/23 10:30:35;;;;;;;15.75;14.85;;;11.90;99.90;;;;;;5074636;28;20070;-57
2021/07/23 10:33:04;;;;;;;15.07;14.27;;;11.90;99.90;;;;;;5074525;28;20020;-55
2021/07/23 10:35:34;;;;;;;15.18;14.27;;;11.90;99.90;;;;;;5074412;28;20016;-56
2021/07/23 10:38:03;;;;;;;16.05;15.20;;;11.90;99.90;;;;;;5074426;28;20025;-55
2021/07/23 10:40:36;;;;;;;16.10;15.20;;;11.90;99.90;;;;;;5074477;28;20025;-56
2021/07/23 10:43:23;;;;;;;15.98;15.27;;;11.90;99.90;;;;;;5074403;28;20438;-56
2021/07/23 10:45:50;;;;;;;15.18;14.48;;;11.90;99.90;;;;;;5074500;28;20066;-55
2021/07/23 10:48:46;;;;;;;15.82;14.93;;;11.90;99.90;;;;;;5075781;28;20016;-55
2021/07/23 10:51:47;;;;;;;15.65;14.63;;;12.00;99.90;;;;;;5075173;28;20303;-54
2021/07/23 10:54:18;;;;;;;15.48;14.75;;;12.10;99.90;;;;;;5075883;28;20020;-52
2021/07/23 10:57:01;;;;;;;15.05;14.18;;;12.10;99.90;;;;;;5074932;28;20119;-55
2021/07/23 10:59:40;;;;;;;14.65;13.95;;;12.10;99.90;;;;;;5075860;28;20507;-53
2021/07/23 11:02:28;;;;;;;13.95;13.25;;;12.20;99.90;;;;;;5073960;28;20154;-50
2021/07/23 11:05:09;;;;;;;13.70;13.05;;;12.20;99.90;;;;;;5073609;28;20017;-53
2021/07/23 11:07:38;;;;;;;13.68;12.98;;;12.30;99.90;;;;;;5073678;28;20036;-56
2021/07/23 11:10:11;;;;;;;13.48;12.80;;;12.20;99.90;;;;;;5073581;28;20081;-56
2021/07/23 11:12:48;;;;;;;13.85;13.07;;;12.20;99.90;;;;;;5073521;28;20052;-56
2021/07/23 11:15:16;;;;;;;14.43;13.73;;;12.20;99.90;;;;;;5073574;28;20021;-54
2021/07/23 11:17:51;;;;;;;14.02;13.32;;;12.20;99.90;;;;;;5073364;28;20021;-57
2021/07/23 11:20:28;;;;;;;13.35;12.70;;;12.20;99.90;;;;;;5073451;28;20025;-55
2021/07/23 11:22:56;;;;;;;14.00;13.30;;;12.20;99.90;;;;;;5073657;28;20028;-54
2021/07/23 11:25:24;;;;;;;13.70;12.90;;;12.20;99.90;;;;;;5073185;28;20044;-55
2021/07/23 11:27:53;;;;;;;13.40;12.70;;;12.20;99.90;;;;;;5073339;28;20035;-57
2021/07/23 11:30:25;;;;;;;13.75;12.90;;;12.20;99.90;;;;;;5073405;28;20021;-57
2021/07/23 11:32:54;;;;;;;13.80;13.00;;;12.20;99.90;;;;;;5073281;28;20134;-55
2021/07/23 11:35:29;;;;;;;13.38;12.65;;;12.20;99.90;;;;;;5073091;28;20064;-56
2021/07/23 11:37:58;;;;;;;14.38;13.38;;;12.20;99.90;;;;;;5073070;28;20024;-55
2021/07/23 11:40:27;;;;;;;13.27;12.57;;;12.20;99.90;;;;;;5072998;28;20028;-57
2021/07/23 11:42:56;;;;;;;14.20;13.30;;;12.20;99.90;;;;;;5073041;28;20028;-54
2021/07/23 11:45:34;;;;;;;13.48;12.82;;;12.20;99.90;;;;;;5073331;28;20028;-55
2021/07/23 11:48:20;;;;;;;13.15;12.38;;;12.20;99.90;;;;;;5073055;28;20020;-57
2021/07/23 11:50:55;;;;;;;12.80;12.10;;;12.20;99.90;;;;;;5073002;28;20024;-55
2021/07/23 11:53:23;;;;;;;12.75;12.02;;;12.20;99.90;;;;;;5071745;28;20024;-54
2021/07/23 11:55:51;;;;;;;12.43;11.82;;;12.20;99.90;;;;;;5072684;28;20077;-55
2021/07/23 11:58:24;;;;;;;12.30;11.60;;;12.30;99.90;;;;;;5073128;28;20032;-53
2021/07/23 12:00:52;;;;;;;11.70;11.10;;;12.30;99.90;;;;;;5072688;28;20024;-54
2021/07/23 12:03:25;;;;;;;12.20;11.60;;;12.20;99.90;;;;;;5072503;28;20071;-56
2021/07/23 12:05:52;;;;;;;12.30;11.57;;;12.30;99.90;;;;;;5072911;28;20024;-55
2021/07/23 12:08:22;;;;;;;11.55;10.85;;;12.30;99.90;;;;;;5072858;28;20100;-56
2021/07/23 12:10:53;;;;;;;10.95;10.55;;;12.30;99.90;;;;;;5072812;28;20025;-55
2021/07/23 12:13:22;;;;;;;10.80;10.30;;;12.30;99.90;;;;;;5072658;28;20036;-55
2021/07/23 12:15:55;;;;;;;10.88;10.38;;;12.30;99.90;;;;;;5072708;28;20488;-56
2021/07/23 12:18:24;;;;;;;11.00;10.50;;;12.30;99.90;;;;;;5072690;28;20032;-55
2021/07/23 12:20:53;;;;;;;11.02;10.32;;;12.30;99.90;;;;;;5072593;28;20040;-54
2021/07/23 12:23:28;;;;;;;11.13;10.43;;;12.30;99.90;;;;;;5072541;28;20052;-56
2021/07/23 12:25:56;;;;;;;9.95;9.45;;;12.30;99.90;;;;;;5072730;28;20478;-54
2021/07/23 12:28:23;;;;;;;10.20;9.70;;;12.30;99.90;;;;;;5072481;28;20040;-54
2021/07/23 12:30:52;;;;;;;9.77;9.30;;;12.30;99.90;;;;;;5072608;28;20099;-54
2021/07/23 12:33:28;;;;;;;9.32;8.82;;;12.40;99.90;;;;;;5072902;28;20477;-57
2021/07/23 12:36:05;;;;;;;9.40;9.00;;;12.40;99.90;;;;;;5076690;28;20024;-54
2021/07/23 12:38:32;;;;;;;10.20;9.70;;;12.40;99.90;;;;;;5076691;28;20481;-54
2021/07/23 12:41:01;;;;;;;10.75;10.25;;;12.40;99.90;;;;;;5076856;28;20013;-56
2021/07/23 12:43:30;;;;;;;10.55;10.05;;;12.50;99.90;;;;;;5076379;28;20511;-55
2021/07/23 12:45:57;;;;;;;10.07;9.57;;;12.50;99.90;;;;;;5076368;28;20077;-58
2021/07/23 12:48:33;;;;;;;10.20;9.70;;;12.50;99.90;;;;;;5076474;28;20017;-56